Sct Santiago — V7NF7 — position and weather

sailwx.info

Track history (hours):
 
Tides and Currents Weather Stations Pressure Air Temp Water Temp Dewpoint Dewpoint Depression Visibility Wind Speed Wind Dir Waves Ship Positions

Sct Santiago

Last reported at 2015-May-28 18:33 UTC. Time now 2015-May-28 20:18 UTC.
Position N 36°42' E 000°30'.

Length 294 m; draft 12 m.

Type: Cargo ship. MMSI: 538002953.

Date/timePositionNaut miles runAvg speedWind from/ knotsBaromVisibWave heightAir tempDewpointWater temp
2015-May-28 18:33N 36°42' E 000°30'2120.9
2015-May-28 17:33N 36°39' E 000°04'2120.5
2015-May-28 16:33N 36°36' W 000°21'2020.2
2015-May-28 15:33N 36°33' W 000°46'2020.0
2015-May-28 14:33N 36°30' W 001°10'2020.2
2015-May-28 13:33N 36°27' W 001°35'3919.7
2015-May-28 11:33N 36°20' W 002°23'2019.7
2015-May-28 10:33N 36°18' W 002°47'11621.4
2015-May-28 05:08N 36°01' W 005°09'1323.0
2015-May-28 04:33N 35°58' W 005°25'14420.5
2015-May-27 21:33N 36°22' W 008°21'2221.9
2015-May-27 20:34N 36°27' W 008°47'2221.7
2015-May-27 19:33N 36°33' W 009°13'2121.2
2015-May-27 18:33N 36°47' W 009°33'2222.1
2015-May-27 17:34N 37°09' W 009°38'2221.8
2015-May-27 16:33N 37°30' W 009°45'2221.8
2015-May-27 15:33N 37°51' W 009°51'2221.6
2015-May-27 14:33N 38°12' W 009°59'2221.7
2015-May-27 13:33N 38°34' W 010°04'2221.5
2015-May-27 12:33N 38°55' W 010°06'2121.6
2015-May-27 11:33N 39°17' W 010°06'70620.0
2015-May-26 00:19N 49°55' W 003°01'1519.9
2015-May-25 23:33N 50°00' W 002°39'7321.4
2015-May-25 20:08N 50°20' W 000°49'1422.4
2015-May-25 19:30N 50°23' W 000°28'2121.8
2015-May-25 18:33N 50°29' E 000°04'2121.3
2015-May-25 17:34N 50°35' E 000°36'2120.6
2015-May-25 16:34N 50°47' E 001°02'1919.5
2015-May-25 15:34N 50°60' E 001°25'2120.8
2015-May-25 14:34N 51°15' E 001°48'1716.7
2015-May-25 13:33N 51°22' E 002°13'1919.1
2015-May-25 12:33N 51°23' E 002°43'1616.3
2015-May-25 11:34N 51°24' E 003°09'1616.3
2015-May-25 10:33N 51°26' E 003°35'1212.2
2015-May-25 09:33N 51°21' E 003°53'1010.1
2015-May-25 08:34N 51°23' E 004°09'5 4.7
2015-May-25 07:25N 51°21' E 004°17'0 0.4
2015-May-25 06:31N 51°21' E 004°18'2 1.8
2015-May-25 05:32N 51°19' E 004°20'0 0.0
2015-May-25 04:32N 51°19' E 004°20'0 0.0
2015-May-25 03:32N 51°19' E 004°20'0 0.0
2015-May-25 02:32N 51°19' E 004°20'0 0.0
2015-May-25 01:32N 51°20' E 004°20'0 0.0
2015-May-25 00:32N 51°19' E 004°20'0 0.0
2015-May-24 23:29N 51°19' E 004°20'0 0.0
2015-May-24 22:32N 51°19' E 004°20'0 0.0
2015-May-24 21:32N 51°19' E 004°20'0 0.0
2015-May-24 20:32N 51°19' E 004°20'0 0.0
2015-May-24 19:29N 51°20' E 004°20'0 0.0
2015-May-24 18:32N 51°19' E 004°20'0 0.0
2015-May-24 17:32N 51°19' E 004°20'0 0.0
2015-May-24 16:32N 51°19' E 004°20'0 0.0
2015-May-24 15:32N 51°19' E 004°20'0 0.0
2015-May-24 14:29N 51°19' E 004°20'0 0.0
2015-May-24 13:32N 51°19' E 004°20'0 0.0
2015-May-24 12:29N 51°19' E 004°20'0 0.0
2015-May-24 11:32N 51°19' E 004°20'0 0.0
2015-May-24 10:32N 51°19' E 004°20'0 0.0
2015-May-24 09:32N 51°19' E 004°20'0 0.0
2015-May-24 08:32N 51°20' E 004°20'0 0.0
2015-May-24 07:32N 51°20' E 004°20'0 0.0
2015-May-24 06:32N 51°19' E 004°20'0 0.0
2015-May-24 05:31N 51°19' E 004°20'0 0.0
2015-May-24 04:31N 51°19' E 004°20'0 0.0
2015-May-24 03:25N 51°19' E 004°20'0 0.0
2015-May-24 02:31N 51°19' E 004°20'0 0.0
2015-May-24 01:31N 51°19' E 004°20'0 0.0
2015-May-24 00:31N 51°19' E 004°20'0 0.0
2015-May-23 23:31N 51°19' E 004°20'0 0.0
2015-May-23 22:31N 51°19' E 004°20'0 0.0
2015-May-23 21:31N 51°19' E 004°20'0 0.0
2015-May-23 20:31N 51°19' E 004°20'0 0.0
2015-May-23 19:31N 51°19' E 004°20'0 0.0
2015-May-23 18:31N 51°19' E 004°20'0 0.0
2015-May-23 17:31N 51°19' E 004°20'0 0.0
2015-May-23 16:31N 51°19' E 004°20'0 0.0
2015-May-23 15:31N 51°19' E 004°20'1 1.2
2015-May-23 14:33N 51°20' E 004°18'1 0.9
2015-May-23 13:33N 51°21' E 004°17'2 2.4
2015-May-23 12:33N 51°22' E 004°14'8 7.9
2015-May-23 11:33N 51°25' E 004°02'10 9.8
2015-May-23 10:34N 51°21' E 003°47'10 9.6
2015-May-23 09:34N 51°25' E 003°34'1212.2
2015-May-23 08:33N 51°24' E 003°14'1413.9
2015-May-23 07:33N 51°22' E 002°52'9 8.7
2015-May-23 06:34N 51°23' E 002°38'2 1.6
2015-May-23 05:34N 51°24' E 002°38'0 0.0
2015-May-23 04:34N 51°24' E 002°38'0 0.0
2015-May-23 03:34N 51°24' E 002°38'0 0.0
2015-May-23 02:33N 51°24' E 002°38'0 0.1
2015-May-23 01:33N 51°24' E 002°38'0 0.1
2015-May-23 00:33N 51°24' E 002°38'1 0.7
2015-May-22 23:34N 51°24' E 002°38'1313.2
2015-May-22 22:33N 51°18' E 002°18'1211.6
2015-May-22 21:32N 51°22' E 002°00'9 9.5
2015-May-22 20:34N 51°30' E 001°52'9 9.4
2015-May-22 19:34N 51°39' E 001°46'9 8.8
2015-May-22 18:33N 51°47' E 001°44'9 8.5
2015-May-22 17:33N 51°53' E 001°34'10 9.9
2015-May-22 16:34N 51°57' E 001°19'1 1.0
2015-May-22 15:31N 51°58' E 001°18'0 0.0
2015-May-22 14:31N 51°58' E 001°18'0 0.0
2015-May-22 13:31N 51°58' E 001°18'0 0.0
2015-May-22 12:31N 51°58' E 001°18'0 0.0
2015-May-22 11:31N 51°58' E 001°18'0 0.0
2015-May-22 10:31N 51°58' E 001°18'0 0.0
2015-May-22 09:31N 51°58' E 001°18'0 0.0
2015-May-22 08:31N 51°58' E 001°18'0 0.0
2015-May-22 07:31N 51°58' E 001°18'0 0.0
2015-May-22 06:31N 51°58' E 001°18'0 0.0
2015-May-22 05:31N 51°58' E 001°18'0 0.0
2015-May-22 04:31N 51°58' E 001°18'0 0.0
2015-May-22 03:31N 51°58' E 001°18'0 0.0
2015-May-22 02:31N 51°58' E 001°18'0 0.0
2015-May-22 01:31N 51°58' E 001°18'0 0.0
2015-May-22 00:31N 51°58' E 001°18'0 0.0
2015-May-21 23:31N 51°58' E 001°18'0 0.0
2015-May-21 22:31N 51°58' E 001°18'0 0.0
2015-May-21 21:34N 51°58' E 001°18'0 0.0
2015-May-21 20:33N 51°58' E 001°18'0 0.0
2015-May-21 19:33N 51°58' E 001°18'0 0.0
2015-May-21 18:33N 51°58' E 001°18'0 0.0
2015-May-21 17:33N 51°58' E 001°18'0 0.4
2015-May-21 16:33N 51°57' E 001°18'6 6.4
2015-May-21 15:33N 51°56' E 001°28'9 8.9
2015-May-21 14:33N 51°52' E 001°41'6 5.6
2015-May-21 13:33N 51°49' E 001°49'1010.4
2015-May-21 12:33N 51°39' E 001°50'1313.3
2015-May-21 11:34N 51°27' E 002°00'1111.0
2015-May-21 10:34N 51°17' E 001°54'1514.6
2015-May-21 09:33N 51°05' E 001°41'1414.3
2015-May-21 08:34N 50°54' E 001°25'1413.7
2015-May-21 07:33N 50°41' E 001°18'1413.9
2015-May-21 06:33N 50°32' E 001°01'1413.9
2015-May-21 05:32N 50°27' E 000°40'3113.7
2015-May-21 03:16N 50°16' W 000°05'912.6
2015-May-21 02:32N 50°14' W 000°19'3812.8
2015-May-20 23:33N 50°04' W 001°17'74014.7
2015-May-18 21:04N 39°20' W 009°50'918.3
2015-May-18 20:33N 39°11' W 009°51'1818.3
2015-May-18 19:33N 38°52' W 009°52'  
Track history (hours):
 
Tides and Currents Weather Stations Pressure Air Temp Water Temp Dewpoint Dewpoint Depression Visibility Wind Speed Wind Dir Waves Ship Positions

Sct Santiago

Last reported at 2015-May-28 18:33 UTC. Time now 2015-May-28 20:18 UTC.
Position N 36°42' E 000°30'.

Length 294 m; draft 12 m.

Type: Cargo ship. MMSI: 538002953.

Date/timePositionNaut miles runAvg speedWind from/ knotsBaromVisibWave heightAir tempDewpointWater temp
2015-May-28 18:33N 36°42' E 000°30'2120.9
2015-May-28 17:33N 36°39' E 000°04'2120.5
2015-May-28 16:33N 36°36' W 000°21'2020.2
2015-May-28 15:33N 36°33' W 000°46'2020.0
2015-May-28 14:33N 36°30' W 001°10'2020.2
2015-May-28 13:33N 36°27' W 001°35'3919.7
2015-May-28 11:33N 36°20' W 002°23'2019.7
2015-May-28 10:33N 36°18' W 002°47'11621.4
2015-May-28 05:08N 36°01' W 005°09'1323.0
2015-May-28 04:33N 35°58' W 005°25'14420.5
2015-May-27 21:33N 36°22' W 008°21'2221.9
2015-May-27 20:34N 36°27' W 008°47'2221.7
2015-May-27 19:33N 36°33' W 009°13'2121.2
2015-May-27 18:33N 36°47' W 009°33'2222.1
2015-May-27 17:34N 37°09' W 009°38'2221.8
2015-May-27 16:33N 37°30' W 009°45'2221.8
2015-May-27 15:33N 37°51' W 009°51'2221.6
2015-May-27 14:33N 38°12' W 009°59'2221.7
2015-May-27 13:33N 38°34' W 010°04'2221.5
2015-May-27 12:33N 38°55' W 010°06'2121.6
2015-May-27 11:33N 39°17' W 010°06'70620.0
2015-May-26 00:19N 49°55' W 003°01'1519.9
2015-May-25 23:33N 50°00' W 002°39'7321.4
2015-May-25 20:08N 50°20' W 000°49'1422.4
2015-May-25 19:30N 50°23' W 000°28'2121.8
2015-May-25 18:33N 50°29' E 000°04'2121.3
2015-May-25 17:34N 50°35' E 000°36'2120.6
2015-May-25 16:34N 50°47' E 001°02'1919.5
2015-May-25 15:34N 50°60' E 001°25'2120.8
2015-May-25 14:34N 51°15' E 001°48'1716.7
2015-May-25 13:33N 51°22' E 002°13'1919.1
2015-May-25 12:33N 51°23' E 002°43'1616.3
2015-May-25 11:34N 51°24' E 003°09'1616.3
2015-May-25 10:33N 51°26' E 003°35'1212.2
2015-May-25 09:33N 51°21' E 003°53'1010.1
2015-May-25 08:34N 51°23' E 004°09'5 4.7
2015-May-25 07:25N 51°21' E 004°17'0 0.4
2015-May-25 06:31N 51°21' E 004°18'2 1.8
2015-May-25 05:32N 51°19' E 004°20'0 0.0
2015-May-25 04:32N 51°19' E 004°20'0 0.0
2015-May-25 03:32N 51°19' E 004°20'0 0.0
2015-May-25 02:32N 51°19' E 004°20'0 0.0
2015-May-25 01:32N 51°20' E 004°20'0 0.0
2015-May-25 00:32N 51°19' E 004°20'0 0.0
2015-May-24 23:29N 51°19' E 004°20'0 0.0
2015-May-24 22:32N 51°19' E 004°20'0 0.0
2015-May-24 21:32N 51°19' E 004°20'0 0.0
2015-May-24 20:32N 51°19' E 004°20'0 0.0
2015-May-24 19:29N 51°20' E 004°20'0 0.0
2015-May-24 18:32N 51°19' E 004°20'0 0.0
2015-May-24 17:32N 51°19' E 004°20'0 0.0
2015-May-24 16:32N 51°19' E 004°20'0 0.0
2015-May-24 15:32N 51°19' E 004°20'0 0.0
2015-May-24 14:29N 51°19' E 004°20'0 0.0
2015-May-24 13:32N 51°19' E 004°20'0 0.0
2015-May-24 12:29N 51°19' E 004°20'0 0.0
2015-May-24 11:32N 51°19' E 004°20'0 0.0
2015-May-24 10:32N 51°19' E 004°20'0 0.0
2015-May-24 09:32N 51°19' E 004°20'0 0.0
2015-May-24 08:32N 51°20' E 004°20'0 0.0
2015-May-24 07:32N 51°20' E 004°20'0 0.0
2015-May-24 06:32N 51°19' E 004°20'0 0.0
2015-May-24 05:31N 51°19' E 004°20'0 0.0
2015-May-24 04:31N 51°19' E 004°20'0 0.0
2015-May-24 03:25N 51°19' E 004°20'0 0.0
2015-May-24 02:31N 51°19' E 004°20'0 0.0
2015-May-24 01:31N 51°19' E 004°20'0 0.0
2015-May-24 00:31N 51°19' E 004°20'0 0.0
2015-May-23 23:31N 51°19' E 004°20'0 0.0
2015-May-23 22:31N 51°19' E 004°20'0 0.0
2015-May-23 21:31N 51°19' E 004°20'0 0.0
2015-May-23 20:31N 51°19' E 004°20'0 0.0
2015-May-23 19:31N 51°19' E 004°20'0 0.0
2015-May-23 18:31N 51°19' E 004°20'0 0.0
2015-May-23 17:31N 51°19' E 004°20'0 0.0
2015-May-23 16:31N 51°19' E 004°20'0 0.0
2015-May-23 15:31N 51°19' E 004°20'1 1.2
2015-May-23 14:33N 51°20' E 004°18'1 0.9
2015-May-23 13:33N 51°21' E 004°17'2 2.4
2015-May-23 12:33N 51°22' E 004°14'8 7.9
2015-May-23 11:33N 51°25' E 004°02'10 9.8
2015-May-23 10:34N 51°21' E 003°47'10 9.6
2015-May-23 09:34N 51°25' E 003°34'1212.2
2015-May-23 08:33N 51°24' E 003°14'1413.9
2015-May-23 07:33N 51°22' E 002°52'9 8.7
2015-May-23 06:34N 51°23' E 002°38'2 1.6
2015-May-23 05:34N 51°24' E 002°38'0 0.0
2015-May-23 04:34N 51°24' E 002°38'0 0.0
2015-May-23 03:34N 51°24' E 002°38'0 0.0
2015-May-23 02:33N 51°24' E 002°38'0 0.1
2015-May-23 01:33N 51°24' E 002°38'0 0.1
2015-May-23 00:33N 51°24' E 002°38'1 0.7
2015-May-22 23:34N 51°24' E 002°38'1313.2
2015-May-22 22:33N 51°18' E 002°18'1211.6
2015-May-22 21:32N 51°22' E 002°00'9 9.5
2015-May-22 20:34N 51°30' E 001°52'9 9.4
2015-May-22 19:34N 51°39' E 001°46'9 8.8
2015-May-22 18:33N 51°47' E 001°44'9 8.5
2015-May-22 17:33N 51°53' E 001°34'10 9.9
2015-May-22 16:34N 51°57' E 001°19'1 1.0
2015-May-22 15:31N 51°58' E 001°18'0 0.0
2015-May-22 14:31N 51°58' E 001°18'0 0.0
2015-May-22 13:31N 51°58' E 001°18'0 0.0
2015-May-22 12:31N 51°58' E 001°18'0 0.0
2015-May-22 11:31N 51°58' E 001°18'0 0.0
2015-May-22 10:31N 51°58' E 001°18'0 0.0
2015-May-22 09:31N 51°58' E 001°18'0 0.0
2015-May-22 08:31N 51°58' E 001°18'0 0.0
2015-May-22 07:31N 51°58' E 001°18'0 0.0
2015-May-22 06:31N 51°58' E 001°18'0 0.0
2015-May-22 05:31N 51°58' E 001°18'0 0.0
2015-May-22 04:31N 51°58' E 001°18'0 0.0
2015-May-22 03:31N 51°58' E 001°18'0 0.0
2015-May-22 02:31N 51°58' E 001°18'0 0.0
2015-May-22 01:31N 51°58' E 001°18'0 0.0
2015-May-22 00:31N 51°58' E 001°18'0 0.0
2015-May-21 23:31N 51°58' E 001°18'0 0.0
2015-May-21 22:31N 51°58' E 001°18'0 0.0
2015-May-21 21:34N 51°58' E 001°18'0 0.0
2015-May-21 20:33N 51°58' E 001°18'0 0.0
2015-May-21 19:33N 51°58' E 001°18'0 0.0
2015-May-21 18:33N 51°58' E 001°18'0 0.0
2015-May-21 17:33N 51°58' E 001°18'0 0.4
2015-May-21 16:33N 51°57' E 001°18'6 6.4
2015-May-21 15:33N 51°56' E 001°28'9 8.9
2015-May-21 14:33N 51°52' E 001°41'6 5.6
2015-May-21 13:33N 51°49' E 001°49'1010.4
2015-May-21 12:33N 51°39' E 001°50'1313.3
2015-May-21 11:34N 51°27' E 002°00'1111.0
2015-May-21 10:34N 51°17' E 001°54'1514.6
2015-May-21 09:33N 51°05' E 001°41'1414.3
2015-May-21 08:34N 50°54' E 001°25'1413.7
2015-May-21 07:33N 50°41' E 001°18'1413.9
2015-May-21 06:33N 50°32' E 001°01'1413.9
2015-May-21 05:32N 50°27' E 000°40'3113.7
2015-May-21 03:16N 50°16' W 000°05'912.6
2015-May-21 02:32N 50°14' W 000°19'3812.8
2015-May-20 23:33N 50°04' W 001°17'74014.7
2015-May-18 21:04N 39°20' W 009°50'918.3
2015-May-18 20:33N 39°11' W 009°51'1818.3
2015-May-18 19:33N 38°52' W 009°52'  

Dump ship's entire track history